Patriarch — WBN3014 — position and weather

sailwx.info

Track history (hours):
 
Tides and Currents Weather Stations Pressure Air Temp Water Temp Dewpoint Dewpoint Depression Visibility Wind Speed Wind Dir Waves Ship Positions

Patriarch

Owner: CROWLEY PUERTO RICO SERVICES INC, Jacksonville, FL. More information available from US FCC via Universal Licensing System and Coast Guard Vessel Documentation Center.

Last reported at 2017-Jul-24 10:09 UTC. Time now 2017-Aug-23 23:27 UTC.
Position N 38°58' W 075°07'.
Warning: this ship's position is 30 days out of date.

Length 46 m; draft 5.3 m.

Type: Towing. MMSI: 366766940.

Date/timePositionNaut miles runAvg speedWind from/ knotsBaromVisibWave heightAir tempDewpointWater temp
2017-Jul-24 10:09N 38°58' W 075°07'210.0
2017-Jul-24 10:00N 38°59' W 075°08'510.6
2017-Jul-24 09:30N 39°04' W 075°11'510.9
2017-Jul-24 09:00N 39°09' W 075°14'611.8
2017-Jul-24 08:31N 39°14' W 075°18'612.4
2017-Jul-24 08:01N 39°18' W 075°23'612.5
2017-Jul-24 07:31N 39°23' W 075°29'510.7
2017-Jul-24 07:01N 39°27' W 075°33'611.2
2017-Jul-24 06:30N 39°33' W 075°33'510.1
2017-Jul-24 06:01N 39°37' W 075°35'5 9.4
2017-Jul-24 05:30N 39°41' W 075°31'4 8.8
2017-Jul-24 05:00N 39°45' W 075°29'4 8.0
2017-Jul-24 04:31N 39°48' W 075°25'4 8.0
2017-Jul-24 04:01N 39°50' W 075°21'4 7.7
2017-Jul-24 03:31N 39°51' W 075°16'4 8.0
2017-Jul-24 03:01N 39°53' W 075°12'4 7.0
2017-Jul-24 02:31N 39°55' W 075°08'4 7.3
2017-Jul-24 02:01N 39°58' W 075°07'0 0.3
2017-Jul-24 01:31N 39°58' W 075°07'0 0.1
2017-Jul-24 00:58N 39°58' W 075°07'0 0.0
2017-Jul-24 00:28N 39°58' W 075°07'0 0.0
2017-Jul-23 23:58N 39°58' W 075°07'0 0.0
2017-Jul-23 23:28N 39°58' W 075°07'0 0.0
2017-Jul-23 22:58N 39°58' W 075°07'0 0.0
2017-Jul-23 22:28N 39°58' W 075°07'0 0.0
2017-Jul-23 21:58N 39°58' W 075°07'1 2.2
2017-Jul-23 21:28N 39°59' W 075°05'0 0.0
2017-Jul-23 20:58N 39°59' W 075°05'0 0.0
2017-Jul-23 20:19N 39°59' W 075°05'0 0.0
2017-Jul-23 19:58N 39°59' W 075°05'0 0.0
2017-Jul-23 19:28N 39°59' W 075°05'0 0.0
2017-Jul-23 18:58N 39°59' W 075°05'0 0.0
2017-Jul-23 18:25N 39°59' W 075°05'0 0.0
2017-Jul-23 17:58N 39°59' W 075°05'0 0.0
2017-Jul-23 17:28N 39°59' W 075°05'0 0.0
2017-Jul-23 16:58N 39°59' W 075°05'0 0.0
2017-Jul-23 16:25N 39°59' W 075°05'0 0.0
2017-Jul-23 15:58N 39°59' W 075°05'0 0.0
2017-Jul-23 15:28N 39°59' W 075°05'0 0.0
2017-Jul-23 14:52N 39°59' W 075°05'0 0.0
2017-Jul-23 14:28N 39°59' W 075°05'0 0.0
2017-Jul-23 13:58N 39°59' W 075°05'0 0.0
2017-Jul-23 13:28N 39°59' W 075°05'0 0.0
2017-Jul-23 12:58N 39°59' W 075°05'0 0.0
2017-Jul-23 12:28N 39°59' W 075°05'0 0.0
2017-Jul-23 11:58N 39°59' W 075°05'0 0.0
2017-Jul-23 11:28N 39°59' W 075°05'0 0.0
2017-Jul-23 10:58N 39°59' W 075°05'0 0.0
2017-Jul-23 10:28N 39°59' W 075°05'0 0.0
2017-Jul-23 09:58N 39°59' W 075°05'0 0.0
2017-Jul-23 09:28N 39°59' W 075°05'0 0.0
2017-Jul-23 08:58N 39°59' W 075°05'0 0.0
2017-Jul-23 08:28N 39°59' W 075°05'0 0.0
2017-Jul-23 07:58N 39°59' W 075°05'0 0.0
2017-Jul-23 07:28N 39°59' W 075°05'0 0.0
2017-Jul-23 06:52N 39°59' W 075°05'0 0.0
2017-Jul-23 06:28N 39°59' W 075°05'0 0.0
2017-Jul-23 05:58N 39°59' W 075°05'0 0.0
2017-Jul-23 05:25N 39°59' W 075°05'0 0.0
2017-Jul-23 04:58N 39°59' W 075°05'0 0.0
2017-Jul-23 04:28N 39°59' W 075°05'0 0.1
2017-Jul-23 04:00N 39°59' W 075°05'1 2.3
2017-Jul-23 03:30N 39°58' W 075°07'0 0.0
2017-Jul-23 03:00N 39°58' W 075°07'0 0.2
2017-Jul-23 02:30N 39°58' W 075°07'0 0.9
2017-Jul-23 02:00N 39°58' W 075°07'3 6.8
2017-Jul-23 01:30N 39°55' W 075°08'4 8.7
2017-Jul-23 01:00N 39°52' W 075°13'510.4
2017-Jul-23 00:30N 39°51' W 075°19'510.3
2017-Jul-23 00:00N 39°48' W 075°25'5 9.8
2017-Jul-22 23:30N 39°45' W 075°29'5 9.4
2017-Jul-22 23:00N 39°40' W 075°32'4 8.7
2017-Jul-22 22:31N 39°37' W 075°35'5 9.0
2017-Jul-22 22:01N 39°33' W 075°32'4 8.8
2017-Jul-22 21:30N 39°28' W 075°34'4 8.1
2017-Jul-22 21:01N 39°25' W 075°31'3 7.0
2017-Jul-22 20:30N 39°22' W 075°28'4 8.0
2017-Jul-22 20:00N 39°19' W 075°24'4 8.1
2017-Jul-22 19:30N 39°16' W 075°21'4 8.1
2017-Jul-22 19:01N 39°13' W 075°18'4 8.0
2017-Jul-22 18:29N 39°10' W 075°15'5 8.7
2017-Jul-22 17:56N 39°06' W 075°12'5 8.8
2017-Jul-22 17:24N 39°01' W 075°09'4 8.6
2017-Jul-22 16:56N 38°58' W 075°07'4 8.4
2017-Jul-22 16:29N 38°54' W 075°05'4 8.7
2017-Jul-22 16:00N 38°50' W 075°04'  
2017-Jul-17 05:55N 18°27' W 066°05'0 0.0
2017-Jul-17 05:28N 18°27' W 066°05'0 0.0
2017-Jul-17 04:55N 18°27' W 066°05'0 0.0
2017-Jul-17 04:22N 18°27' W 066°05'0 0.0
2017-Jul-17 03:55N 18°27' W 066°05'0 0.0
2017-Jul-17 03:28N 18°27' W 066°05'0 0.0
2017-Jul-17 02:55N 18°27' W 066°05'0 0.0
2017-Jul-17 02:16N 18°27' W 066°05'0 0.0
2017-Jul-17 01:58N 18°27' W 066°05'0 0.0
2017-Jul-17 01:28N 18°27' W 066°05'0 0.0
2017-Jul-17 00:58N 18°27' W 066°05'0 0.0
2017-Jul-17 00:25N 18°27' W 066°05'0 0.0
2017-Jul-16 23:55N 18°27' W 066°05'0 0.0
2017-Jul-16 23:25N 18°27' W 066°05'0 0.0
2017-Jul-16 22:55N 18°27' W 066°05'0 0.0
2017-Jul-16 22:22N 18°27' W 066°05'0 0.0
2017-Jul-16 21:43N 18°27' W 066°05'0 0.0
2017-Jul-16 21:25N 18°27' W 066°05'0 0.0
2017-Jul-16 20:55N 18°27' W 066°05'0 0.0
2017-Jul-16 20:25N 18°27' W 066°05'0 0.0
2017-Jul-16 19:58N 18°27' W 066°05'0 0.0
2017-Jul-16 19:25N 18°27' W 066°05'0 0.0
2017-Jul-16 18:58N 18°27' W 066°05'0 0.0
2017-Jul-16 18:28N 18°27' W 066°05'0 0.0
2017-Jul-16 17:55N 18°27' W 066°05'0 0.0
2017-Jul-16 17:22N 18°27' W 066°05'0 0.0
2017-Jul-16 16:43N 18°27' W 066°05'0 0.0
2017-Jul-16 16:19N 18°27' W 066°05'1 3.6
2017-Jul-16 15:59N 18°28' W 066°06'0 0.1
2017-Jul-16 13:08N 18°28' W 066°06'1 0.4
2017-Jul-16 11:24N 18°27' W 066°06'0 0.0
2017-Jul-16 09:34N 18°27' W 066°06'0 0.2
2017-Jul-16 09:29N 18°27' W 066°06'1 1.0
2017-Jul-16 08:57N 18°27' W 066°07'4 6.3
2017-Jul-16 08:16N 18°31' W 066°08'3 4.1
2017-Jul-16 07:31N 18°31' W 066°11'  
Track history (hours):
 
Tides and Currents Weather Stations Pressure Air Temp Water Temp Dewpoint Dewpoint Depression Visibility Wind Speed Wind Dir Waves Ship Positions

Patriarch

Owner: CROWLEY PUERTO RICO SERVICES INC, Jacksonville, FL. More information available from US FCC via Universal Licensing System and Coast Guard Vessel Documentation Center.

Last reported at 2017-Jul-24 10:09 UTC. Time now 2017-Aug-23 23:27 UTC.
Position N 38°58' W 075°07'.
Warning: this ship's position is 30 days out of date.

Length 46 m; draft 5.3 m.

Type: Towing. MMSI: 366766940.

Date/timePositionNaut miles runAvg speedWind from/ knotsBaromVisibWave heightAir tempDewpointWater temp
2017-Jul-24 10:09N 38°58' W 075°07'210.0
2017-Jul-24 10:00N 38°59' W 075°08'510.6
2017-Jul-24 09:30N 39°04' W 075°11'510.9
2017-Jul-24 09:00N 39°09' W 075°14'611.8
2017-Jul-24 08:31N 39°14' W 075°18'612.4
2017-Jul-24 08:01N 39°18' W 075°23'612.5
2017-Jul-24 07:31N 39°23' W 075°29'510.7
2017-Jul-24 07:01N 39°27' W 075°33'611.2
2017-Jul-24 06:30N 39°33' W 075°33'510.1
2017-Jul-24 06:01N 39°37' W 075°35'5 9.4
2017-Jul-24 05:30N 39°41' W 075°31'4 8.8
2017-Jul-24 05:00N 39°45' W 075°29'4 8.0
2017-Jul-24 04:31N 39°48' W 075°25'4 8.0
2017-Jul-24 04:01N 39°50' W 075°21'4 7.7
2017-Jul-24 03:31N 39°51' W 075°16'4 8.0
2017-Jul-24 03:01N 39°53' W 075°12'4 7.0
2017-Jul-24 02:31N 39°55' W 075°08'4 7.3
2017-Jul-24 02:01N 39°58' W 075°07'0 0.3
2017-Jul-24 01:31N 39°58' W 075°07'0 0.1
2017-Jul-24 00:58N 39°58' W 075°07'0 0.0
2017-Jul-24 00:28N 39°58' W 075°07'0 0.0
2017-Jul-23 23:58N 39°58' W 075°07'0 0.0
2017-Jul-23 23:28N 39°58' W 075°07'0 0.0
2017-Jul-23 22:58N 39°58' W 075°07'0 0.0
2017-Jul-23 22:28N 39°58' W 075°07'0 0.0
2017-Jul-23 21:58N 39°58' W 075°07'1 2.2
2017-Jul-23 21:28N 39°59' W 075°05'0 0.0
2017-Jul-23 20:58N 39°59' W 075°05'0 0.0
2017-Jul-23 20:19N 39°59' W 075°05'0 0.0
2017-Jul-23 19:58N 39°59' W 075°05'0 0.0
2017-Jul-23 19:28N 39°59' W 075°05'0 0.0
2017-Jul-23 18:58N 39°59' W 075°05'0 0.0
2017-Jul-23 18:25N 39°59' W 075°05'0 0.0
2017-Jul-23 17:58N 39°59' W 075°05'0 0.0
2017-Jul-23 17:28N 39°59' W 075°05'0 0.0
2017-Jul-23 16:58N 39°59' W 075°05'0 0.0
2017-Jul-23 16:25N 39°59' W 075°05'0 0.0
2017-Jul-23 15:58N 39°59' W 075°05'0 0.0
2017-Jul-23 15:28N 39°59' W 075°05'0 0.0
2017-Jul-23 14:52N 39°59' W 075°05'0 0.0
2017-Jul-23 14:28N 39°59' W 075°05'0 0.0
2017-Jul-23 13:58N 39°59' W 075°05'0 0.0
2017-Jul-23 13:28N 39°59' W 075°05'0 0.0
2017-Jul-23 12:58N 39°59' W 075°05'0 0.0
2017-Jul-23 12:28N 39°59' W 075°05'0 0.0
2017-Jul-23 11:58N 39°59' W 075°05'0 0.0
2017-Jul-23 11:28N 39°59' W 075°05'0 0.0
2017-Jul-23 10:58N 39°59' W 075°05'0 0.0
2017-Jul-23 10:28N 39°59' W 075°05'0 0.0
2017-Jul-23 09:58N 39°59' W 075°05'0 0.0
2017-Jul-23 09:28N 39°59' W 075°05'0 0.0
2017-Jul-23 08:58N 39°59' W 075°05'0 0.0
2017-Jul-23 08:28N 39°59' W 075°05'0 0.0
2017-Jul-23 07:58N 39°59' W 075°05'0 0.0
2017-Jul-23 07:28N 39°59' W 075°05'0 0.0
2017-Jul-23 06:52N 39°59' W 075°05'0 0.0
2017-Jul-23 06:28N 39°59' W 075°05'0 0.0
2017-Jul-23 05:58N 39°59' W 075°05'0 0.0
2017-Jul-23 05:25N 39°59' W 075°05'0 0.0
2017-Jul-23 04:58N 39°59' W 075°05'0 0.0
2017-Jul-23 04:28N 39°59' W 075°05'0 0.1
2017-Jul-23 04:00N 39°59' W 075°05'1 2.3
2017-Jul-23 03:30N 39°58' W 075°07'0 0.0
2017-Jul-23 03:00N 39°58' W 075°07'0 0.2
2017-Jul-23 02:30N 39°58' W 075°07'0 0.9
2017-Jul-23 02:00N 39°58' W 075°07'3 6.8
2017-Jul-23 01:30N 39°55' W 075°08'4 8.7
2017-Jul-23 01:00N 39°52' W 075°13'510.4
2017-Jul-23 00:30N 39°51' W 075°19'510.3
2017-Jul-23 00:00N 39°48' W 075°25'5 9.8
2017-Jul-22 23:30N 39°45' W 075°29'5 9.4
2017-Jul-22 23:00N 39°40' W 075°32'4 8.7
2017-Jul-22 22:31N 39°37' W 075°35'5 9.0
2017-Jul-22 22:01N 39°33' W 075°32'4 8.8
2017-Jul-22 21:30N 39°28' W 075°34'4 8.1
2017-Jul-22 21:01N 39°25' W 075°31'3 7.0
2017-Jul-22 20:30N 39°22' W 075°28'4 8.0
2017-Jul-22 20:00N 39°19' W 075°24'4 8.1
2017-Jul-22 19:30N 39°16' W 075°21'4 8.1
2017-Jul-22 19:01N 39°13' W 075°18'4 8.0
2017-Jul-22 18:29N 39°10' W 075°15'5 8.7
2017-Jul-22 17:56N 39°06' W 075°12'5 8.8
2017-Jul-22 17:24N 39°01' W 075°09'4 8.6
2017-Jul-22 16:56N 38°58' W 075°07'4 8.4
2017-Jul-22 16:29N 38°54' W 075°05'4 8.7
2017-Jul-22 16:00N 38°50' W 075°04'  
2017-Jul-17 05:55N 18°27' W 066°05'0 0.0
2017-Jul-17 05:28N 18°27' W 066°05'0 0.0
2017-Jul-17 04:55N 18°27' W 066°05'0 0.0
2017-Jul-17 04:22N 18°27' W 066°05'0 0.0
2017-Jul-17 03:55N 18°27' W 066°05'0 0.0
2017-Jul-17 03:28N 18°27' W 066°05'0 0.0
2017-Jul-17 02:55N 18°27' W 066°05'0 0.0
2017-Jul-17 02:16N 18°27' W 066°05'0 0.0
2017-Jul-17 01:58N 18°27' W 066°05'0 0.0
2017-Jul-17 01:28N 18°27' W 066°05'0 0.0
2017-Jul-17 00:58N 18°27' W 066°05'0 0.0
2017-Jul-17 00:25N 18°27' W 066°05'0 0.0
2017-Jul-16 23:55N 18°27' W 066°05'0 0.0
2017-Jul-16 23:25N 18°27' W 066°05'0 0.0
2017-Jul-16 22:55N 18°27' W 066°05'0 0.0
2017-Jul-16 22:22N 18°27' W 066°05'0 0.0
2017-Jul-16 21:43N 18°27' W 066°05'0 0.0
2017-Jul-16 21:25N 18°27' W 066°05'0 0.0
2017-Jul-16 20:55N 18°27' W 066°05'0 0.0
2017-Jul-16 20:25N 18°27' W 066°05'0 0.0
2017-Jul-16 19:58N 18°27' W 066°05'0 0.0
2017-Jul-16 19:25N 18°27' W 066°05'0 0.0
2017-Jul-16 18:58N 18°27' W 066°05'0 0.0
2017-Jul-16 18:28N 18°27' W 066°05'0 0.0
2017-Jul-16 17:55N 18°27' W 066°05'0 0.0
2017-Jul-16 17:22N 18°27' W 066°05'0 0.0
2017-Jul-16 16:43N 18°27' W 066°05'0 0.0
2017-Jul-16 16:19N 18°27' W 066°05'1 3.6
2017-Jul-16 15:59N 18°28' W 066°06'0 0.1
2017-Jul-16 13:08N 18°28' W 066°06'1 0.4
2017-Jul-16 11:24N 18°27' W 066°06'0 0.0
2017-Jul-16 09:34N 18°27' W 066°06'0 0.2
2017-Jul-16 09:29N 18°27' W 066°06'1 1.0
2017-Jul-16 08:57N 18°27' W 066°07'4 6.3
2017-Jul-16 08:16N 18°31' W 066°08'3 4.1
2017-Jul-16 07:31N 18°31' W 066°11'  

Dump ship's entire track history